66  °F
Temperature
19  °C
Temperature
15  °C
 Dewpoint
59  °F
  Dewpoint
78  %
 Humidity
  Temperature
0  mph
Wind Speed
0  kts
Wind Speed
0  km/h
Wind Speed
0  m/s
Wind Speed
Calm
Due North

Wind Speed
Clear
Conditions
Pressure 29.97 (inHG) - 1014.92 (mb)
Visibility 9.9 (mi) - 16.0 (km)

Sky Conditions
KPCW
Location Carl R Keller Field 5 mi (8.05 km)
Metar :KPCW 242355Z AUTO 00000KT 10SM CLR 19/15 A2997 RMK AO2
Thu 24th September 19:55 pm

Nearest Airport
https://www.checkwx.com/weather/KPCW
  Metar Aviation API Data Provided by https://www.checkwx.com/ Original CSS/SVG/PHP scripts by weather34.com © 2015-2020